Time;durP1;ratioP1;P1;durP2;ratioP2;P2;SDS_P1;SDS_P2;PMS_P1;PMS_P2;Temp;Humidity;BMP_temperature;BMP_pressure;BME280_temperature;BME280_humidity;BME280_pressure;Samples;Min_cycle;Max_cycle;Signal;HPM_P1;HPM_P2
2021/03/31 00:00:58;;;;;;;51.97;19.80;;;;;;;;;;5031714;28;20041;-54
2021/03/31 00:03:24;;;;;;;50.20;19.77;;;;;;;;;;5032135;28;20048;-54
2021/03/31 00:05:49;;;;;;;49.83;20.25;;;;;;;;;;5031573;28;20166;-54
2021/03/31 00:08:14;;;;;;;50.07;19.93;;;;;;;;;;5031082;28;20116;-54
2021/03/31 00:10:40;;;;;;;57.80;20.90;;;;;;;;;;5031984;28;20105;-56
2021/03/31 00:13:05;;;;;;;50.03;19.67;;;;;;;;;;5029892;28;20244;-55
2021/03/31 00:15:31;;;;;;;47.03;19.57;;;;;;;;;;5031739;28;20021;-57
2021/03/31 00:17:56;;;;;;;57.03;19.48;;;;;;;;;;5030672;28;20033;-54
2021/03/31 00:20:22;;;;;;;48.97;20.13;;;;;;;;;;5031969;28;20091;-56
2021/03/31 00:22:48;;;;;;;44.50;19.77;;;;;;;;;;5029853;28;20421;-54
2021/03/31 00:25:13;;;;;;;53.70;19.10;;;;;;;;;;5031886;28;20084;-55
2021/03/31 00:27:39;;;;;;;49.55;20.45;;;;;;;;;;5031961;28;20033;-55
2021/03/31 00:30:06;;;;;;;47.25;20.80;;;;;;;;;;5030831;28;20029;-54
2021/03/31 00:32:31;;;;;;;53.63;22.52;;;;;;;;;;5031660;28;20119;-55
2021/03/31 00:34:56;;;;;;;49.40;20.80;;;;;;;;;;5031096;28;20373;-55
2021/03/31 00:37:22;;;;;;;54.90;20.70;;;;;;;;;;5030202;28;20444;-56
2021/03/31 00:39:47;;;;;;;52.63;19.87;;;;;;;;;;5026123;28;20034;-54
2021/03/31 00:42:12;;;;;;;51.87;20.10;;;;;;;;;;5021064;28;20062;-55
2021/03/31 00:44:38;;;;;;;50.00;19.67;;;;;;;;;;5012936;28;20083;-54
2021/03/31 00:47:03;;;;;;;47.40;20.07;;;;;;;;;;5011199;28;20091;-55
2021/03/31 00:49:29;;;;;;;55.17;21.03;;;;;;;;;;5011501;28;20108;-55
2021/03/31 00:51:54;;;;;;;46.47;19.77;;;;;;;;;;5009929;28;20113;-57
2021/03/31 00:54:20;;;;;;;51.30;19.03;;;;;;;;;;5010402;28;20246;-55
2021/03/31 00:56:45;;;;;;;50.47;19.10;;;;;;;;;;5011619;28;20455;-55
2021/03/31 00:59:10;;;;;;;45.67;20.00;;;;;;;;;;5011208;28;20350;-55
2021/03/31 01:01:36;;;;;;;51.77;20.17;;;;;;;;;;5011168;28;20038;-55
2021/03/31 01:04:01;;;;;;;50.92;21.13;;;;;;;;;;5010938;28;20134;-55
2021/03/31 01:06:27;;;;;;;46.33;18.53;;;;;;;;;;5011831;28;20045;-56
2021/03/31 01:08:52;;;;;;;47.47;18.50;;;;;;;;;;5010104;28;20026;-55
2021/03/31 01:11:25;;;;;;;52.22;20.30;;;;;;;;;;5011876;28;20046;-55
2021/03/31 01:14:23;;;;;;;43.08;18.25;;;;;;;;;;5010545;28;20041;-56
2021/03/31 01:16:50;;;;;;;47.03;19.20;;;;;;;;;;4977777;28;20042;-56
2021/03/31 01:19:27;;;;;;;49.78;20.23;;;;;;;;;;5009330;28;20124;-55
2021/03/31 01:22:11;;;;;;;44.58;18.02;;;;;;;;;;5011145;28;20063;-55
2021/03/31 01:24:45;;;;;;;52.25;20.58;;;;;;;;;;5011222;28;20398;-55
2021/03/31 01:27:19;;;;;;;41.78;18.35;;;;;;;;;;5010842;28;20447;-58
2021/03/31 01:30:03;;;;;;;48.92;20.90;;;;;;;;;;5011692;28;20114;-56
2021/03/31 01:32:47;;;;;;;48.28;18.45;;;;;;;;;;5011495;28;20470;-55
2021/03/31 01:35:14;;;;;;;49.00;20.30;;;;;;;;;;5010640;28;20045;-55
2021/03/31 01:37:41;;;;;;;47.53;19.70;;;;;;;;;;5009867;28;20030;-57
2021/03/31 01:40:08;;;;;;;47.88;19.23;;;;;;;;;;5009494;28;20034;-56
2021/03/31 01:42:36;;;;;;;48.00;19.60;;;;;;;;;;5011202;28;20124;-55
2021/03/31 01:45:03;;;;;;;47.47;20.15;;;;;;;;;;5009565;28;20276;-56
2021/03/31 01:47:30;;;;;;;44.90;19.05;;;;;;;;;;5011129;28;20062;-58
2021/03/31 01:49:57;;;;;;;47.17;18.85;;;;;;;;;;5010021;28;20469;-56
2021/03/31 01:52:22;;;;;;;48.83;18.42;;;;;;;;;;5010144;28;20069;-57
2021/03/31 01:54:49;;;;;;;46.30;19.80;;;;;;;;;;5010072;28;20057;-56
2021/03/31 01:57:15;;;;;;;40.30;18.73;;;;;;;;;;5010645;28;20033;-56
2021/03/31 01:59:41;;;;;;;42.53;19.73;;;;;;;;;;5011149;28;20447;-56
2021/03/31 02:02:09;;;;;;;47.15;18.15;;;;;;;;;;5008964;28;20030;-56
2021/03/31 02:04:36;;;;;;;42.03;19.38;;;;;;;;;;5011126;28;20030;-56
2021/03/31 02:07:05;;;;;;;46.63;18.40;;;;;;;;;;5010603;28;20026;-56
2021/03/31 02:09:33;;;;;;;48.60;20.33;;;;;;;;;;5011017;28;20034;-57
2021/03/31 02:11:59;;;;;;;49.35;19.85;;;;;;;;;;5009876;28;20037;-56
2021/03/31 02:14:25;;;;;;;44.08;19.20;;;;;;;;;;5011795;28;20030;-56
2021/03/31 02:16:50;;;;;;;47.23;19.20;;;;;;;;;;5013310;28;20371;-55
2021/03/31 02:19:17;;;;;;;46.67;19.80;;;;;;;;;;5013949;28;20343;-55
2021/03/31 02:21:43;;;;;;;48.78;19.00;;;;;;;;;;5014377;28;20034;-55
2021/03/31 02:24:10;;;;;;;49.47;20.30;;;;;;;;;;5012616;28;20050;-55
2021/03/31 02:26:35;;;;;;;51.05;19.38;;;;;;;;;;5014412;28;20030;-55
2021/03/31 02:29:01;;;;;;;45.50;20.00;;;;;;;;;;5014264;28;20030;-56
2021/03/31 02:31:26;;;;;;;49.47;20.52;;;;;;;;;;5014495;28;20095;-55
2021/03/31 02:33:52;;;;;;;48.07;19.63;;;;;;;;;;5013888;28;20436;-56
2021/03/31 02:36:20;;;;;;;42.65;17.67;;;;;;;;;;5013369;28;20029;-54
2021/03/31 02:38:46;;;;;;;42.58;18.45;;;;;;;;;;5014268;28;20176;-57
2021/03/31 02:41:11;;;;;;;43.05;19.80;;;;;;;;;;5013189;28;20125;-56
2021/03/31 02:43:39;;;;;;;53.30;21.03;;;;;;;;;;5014431;28;20103;-57
2021/03/31 02:46:05;;;;;;;44.72;19.25;;;;;;;;;;5013492;28;20030;-56
2021/03/31 02:48:31;;;;;;;50.58;20.30;;;;;;;;;;5013879;28;20445;-56
2021/03/31 02:50:57;;;;;;;48.40;19.00;;;;;;;;;;5013758;28;20026;-56
2021/03/31 02:53:22;;;;;;;45.80;19.10;;;;;;;;;;5011979;28;20088;-56
2021/03/31 02:55:48;;;;;;;40.50;17.30;;;;;;;;;;5013575;28;20025;-55
2021/03/31 02:58:14;;;;;;;48.50;18.17;;;;;;;;;;5013237;28;20041;-55
2021/03/31 03:00:39;;;;;;;47.73;20.13;;;;;;;;;;5013660;28;20034;-56
2021/03/31 03:03:07;;;;;;;44.30;18.97;;;;;;;;;;5013080;28;20371;-55
2021/03/31 03:05:32;;;;;;;44.55;20.13;;;;;;;;;;5013557;28;20458;-56
2021/03/31 03:07:58;;;;;;;41.57;19.10;;;;;;;;;;5012403;28;20034;-56
2021/03/31 03:10:23;;;;;;;43.73;20.03;;;;;;;;;;5013108;28;20042;-58
2021/03/31 03:12:51;;;;;;;49.27;20.93;;;;;;;;;;5012530;28;20037;-56
2021/03/31 03:15:18;;;;;;;43.15;19.80;;;;;;;;;;5012972;28;20040;-55
2021/03/31 03:17:43;;;;;;;44.28;19.27;;;;;;;;;;5013192;28;20026;-56
2021/03/31 03:20:09;;;;;;;41.07;17.90;;;;;;;;;;5012791;28;20034;-56
2021/03/31 03:22:36;;;;;;;45.03;20.17;;;;;;;;;;5013374;28;20042;-57
2021/03/31 03:25:02;;;;;;;50.78;20.05;;;;;;;;;;5013055;28;20033;-56
2021/03/31 03:27:28;;;;;;;54.00;22.02;;;;;;;;;;5011370;28;20030;-56
2021/03/31 03:29:54;;;;;;;49.00;20.37;;;;;;;;;;5011966;28;20036;-56
2021/03/31 03:32:21;;;;;;;48.53;20.33;;;;;;;;;;5012653;28;20117;-56
2021/03/31 03:34:48;;;;;;;50.33;20.88;;;;;;;;;;5012973;28;20070;-56
2021/03/31 03:37:16;;;;;;;50.50;20.23;;;;;;;;;;5012608;28;20034;-56
2021/03/31 03:39:41;;;;;;;43.15;19.52;;;;;;;;;;5013037;28;20117;-57
2021/03/31 03:42:07;;;;;;;49.67;21.33;;;;;;;;;;5012712;28;20141;-57
2021/03/31 03:44:32;;;;;;;45.92;21.75;;;;;;;;;;5012306;28;20065;-56
2021/03/31 03:46:58;;;;;;;51.43;21.13;;;;;;;;;;5012688;28;20033;-56
2021/03/31 03:49:23;;;;;;;53.63;22.27;;;;;;;;;;5010636;28;20124;-57
2021/03/31 03:51:49;;;;;;;46.83;19.87;;;;;;;;;;5012682;28;20029;-57
2021/03/31 03:54:14;;;;;;;46.17;20.17;;;;;;;;;;5011993;28;20058;-57
2021/03/31 03:56:45;;;;;;;48.07;19.77;;;;;;;;;;5011515;28;20466;-56
2021/03/31 03:59:16;;;;;;;45.85;19.15;;;;;;;;;;5011510;28;20069;-57
2021/03/31 04:01:42;;;;;;;45.75;19.58;;;;;;;;;;5012510;28;20070;-57
2021/03/31 04:04:07;;;;;;;46.27;20.27;;;;;;;;;;5012393;28;20493;-56
2021/03/31 04:06:32;;;;;;;48.97;19.53;;;;;;;;;;5010738;28;20034;-56
2021/03/31 04:08:58;;;;;;;51.00;20.30;;;;;;;;;;5012514;28;20041;-56
2021/03/31 04:11:23;;;;;;;53.17;20.33;;;;;;;;;;5011893;28;20061;-57
2021/03/31 04:13:49;;;;;;;44.67;18.57;;;;;;;;;;5011069;28;20026;-57
2021/03/31 04:16:15;;;;;;;49.80;20.13;;;;;;;;;;5011660;28;20040;-56
2021/03/31 04:18:40;;;;;;;60.47;20.50;;;;;;;;;;5011851;28;20037;-56
2021/03/31 04:21:07;;;;;;;50.33;21.13;;;;;;;;;;5012112;28;20037;-56
2021/03/31 04:23:33;;;;;;;49.22;20.38;;;;;;;;;;5011667;28;20108;-56
2021/03/31 04:25:58;;;;;;;48.67;19.13;;;;;;;;;;5012202;28;20077;-57
2021/03/31 04:28:25;;;;;;;50.40;20.57;;;;;;;;;;5011866;28;20112;-56
2021/03/31 04:30:51;;;;;;;45.37;19.73;;;;;;;;;;5012345;28;20022;-56
2021/03/31 04:33:17;;;;;;;47.58;19.85;;;;;;;;;;5011693;28;20113;-57
2021/03/31 04:35:42;;;;;;;51.67;20.33;;;;;;;;;;5011690;28;20022;-56
2021/03/31 04:38:08;;;;;;;46.60;20.60;;;;;;;;;;5010614;28;20041;-57
2021/03/31 04:40:42;;;;;;;43.45;19.17;;;;;;;;;;5011595;28;20398;-57
2021/03/31 04:43:07;;;;;;;46.60;21.17;;;;;;;;;;5011907;28;20050;-58
2021/03/31 04:45:33;;;;;;;50.27;20.07;;;;;;;;;;5011524;28;20034;-57
2021/03/31 04:47:58;;;;;;;56.43;20.97;;;;;;;;;;5011546;28;20498;-56
2021/03/31 04:50:23;;;;;;;47.40;19.10;;;;;;;;;;5011491;28;20037;-56
2021/03/31 04:52:49;;;;;;;45.20;21.57;;;;;;;;;;5011905;28;20103;-56
2021/03/31 04:55:14;;;;;;;54.67;19.97;;;;;;;;;;5010355;28;20485;-55
2021/03/31 04:57:40;;;;;;;54.67;20.40;;;;;;;;;;5010205;28;20069;-56
2021/03/31 05:00:05;;;;;;;47.53;19.40;;;;;;;;;;5011938;28;20415;-56
2021/03/31 05:02:30;;;;;;;50.70;20.00;;;;;;;;;;5009568;28;20120;-56
2021/03/31 05:04:56;;;;;;;50.43;20.50;;;;;;;;;;5011719;28;20061;-57
2021/03/31 05:07:21;;;;;;;49.17;19.73;;;;;;;;;;5009886;28;20097;-56
2021/03/31 05:09:46;;;;;;;55.23;20.67;;;;;;;;;;5010423;28;20041;-56
2021/03/31 05:12:12;;;;;;;47.00;19.60;;;;;;;;;;5011801;28;20076;-55
2021/03/31 05:14:37;;;;;;;49.47;18.93;;;;;;;;;;5010987;28;20084;-56
2021/03/31 05:17:02;;;;;;;47.47;18.57;;;;;;;;;;5011679;28;20467;-56
2021/03/31 05:19:28;;;;;;;48.90;20.33;;;;;;;;;;5009828;28;20390;-56
2021/03/31 05:21:53;;;;;;;43.00;18.43;;;;;;;;;;5010132;28;20041;-55
2021/03/31 05:24:19;;;;;;;43.87;18.30;;;;;;;;;;5009755;28;20030;-55
2021/03/31 05:26:44;;;;;;;43.00;18.43;;;;;;;;;;5010952;28;20411;-55
2021/03/31 05:29:09;;;;;;;45.63;19.40;;;;;;;;;;5011217;28;20038;-56
2021/03/31 05:31:35;;;;;;;55.70;19.07;;;;;;;;;;5017448;28;20537;-56
2021/03/31 05:34:00;;;;;;;43.47;19.27;;;;;;;;;;5020356;28;20493;-57
2021/03/31 05:36:25;;;;;;;51.20;18.97;;;;;;;;;;5016995;28;20029;-56
2021/03/31 05:38:51;;;;;;;46.27;20.00;;;;;;;;;;5014210;28;20077;-56
2021/03/31 05:41:16;;;;;;;45.23;18.93;;;;;;;;;;5019979;28;20424;-55
2021/03/31 05:43:41;;;;;;;50.40;21.57;;;;;;;;;;5018585;28;20050;-57
2021/03/31 05:46:07;;;;;;;52.57;19.67;;;;;;;;;;5020170;28;20557;-56
2021/03/31 05:48:32;;;;;;;47.97;19.90;;;;;;;;;;5022685;28;20386;-56
2021/03/31 05:50:59;;;;;;;41.77;20.17;;;;;;;;;;5023537;28;20080;-57
2021/03/31 05:53:24;;;;;;;52.80;20.27;;;;;;;;;;5024768;28;20026;-57
2021/03/31 05:55:50;;;;;;;59.17;24.40;;;;;;;;;;5023836;28;20037;-57
2021/03/31 05:58:15;;;;;;;44.90;20.30;;;;;;;;;;5028925;28;20013;-56
2021/03/31 06:00:40;;;;;;;54.13;19.97;;;;;;;;;;5033709;28;20033;-55
2021/03/31 06:03:06;;;;;;;47.67;20.27;;;;;;;;;;5034423;28;20505;-55
2021/03/31 06:05:32;;;;;;;49.95;21.52;;;;;;;;;;5033713;28;20108;-57
2021/03/31 06:07:58;;;;;;;75.80;22.65;;;;;;;;;;5033004;28;20033;-56
2021/03/31 06:10:24;;;;;;;45.97;20.53;;;;;;;;;;5034487;28;20037;-54
2021/03/31 06:13:02;;;;;;;51.95;21.10;;;;;;;;;;5034171;28;20036;-56
2021/03/31 06:15:31;;;;;;;;;;;;;;;;;;5034042;28;20040;-56
2021/03/31 06:18:16;;;;;;;50.78;20.25;;;;;;;;;;5012305;28;19913;-56
2021/03/31 06:20:54;;;;;;;47.00;19.88;;;;;;;;;;4994168;28;20446;-58
2021/03/31 06:26:22;;;;;;;49.08;18.30;;;;;;;;;;4995244;28;20030;-58
2021/03/31 06:28:52;;;;;;;52.53;20.05;;;;;;;;;;4994415;28;20042;-57
2021/03/31 06:31:17;;;;;;;45.70;19.90;;;;;;;;;;5010213;28;20026;-57
2021/03/31 06:33:44;;;;;;;47.40;20.80;;;;;;;;;;5017500;28;20036;-57
2021/03/31 06:36:10;;;;;;;45.30;20.25;;;;;;;;;;5028241;28;20037;-58
2021/03/31 06:38:36;;;;;;;;;;;;;;;;;;5020081;28;20037;-58
2021/03/31 06:41:11;;;;;;;45.53;20.40;;;;;;;;;;5014269;28;19913;-56
2021/03/31 06:43:48;;;;;;;53.67;21.38;;;;;;;;;;5013842;28;20057;-57
2021/03/31 06:46:24;;;;;;;47.13;21.15;;;;;;;;;;5014460;28;20120;-57
2021/03/31 06:48:51;;;;;;;45.00;20.35;;;;;;;;;;5013099;28;20034;-57
2021/03/31 06:51:23;;;;;;;45.90;20.83;;;;;;;;;;5013784;28;20045;-57
2021/03/31 06:53:49;;;;;;;40.97;20.83;;;;;;;;;;5013498;28;20435;-57
2021/03/31 06:56:14;;;;;;;42.93;20.50;;;;;;;;;;5013923;28;20048;-57
2021/03/31 06:58:40;;;;;;;50.40;21.63;;;;;;;;;;5012147;28;20493;-58
2021/03/31 07:01:22;;;;;;;54.05;22.85;;;;;;;;;;5011698;28;20029;-57
2021/03/31 07:03:47;;;;;;;46.20;21.02;;;;;;;;;;5009388;28;20045;-57
2021/03/31 07:06:13;;;;;;;46.67;22.57;;;;;;;;;;5012601;28;20038;-55
2021/03/31 07:08:38;;;;;;;47.67;21.17;;;;;;;;;;5011383;28;20462;-56
2021/03/31 07:11:04;;;;;;;54.63;22.23;;;;;;;;;;5013194;28;20499;-56
2021/03/31 07:13:33;;;;;;;48.23;21.70;;;;;;;;;;5028493;28;20120;-57
2021/03/31 07:16:00;;;;;;;52.15;22.45;;;;;;;;;;5028339;28;20378;-56
2021/03/31 07:18:27;;;;;;;47.97;21.15;;;;;;;;;;5013131;28;20030;-55
2021/03/31 07:20:52;;;;;;;46.00;21.95;;;;;;;;;;5012622;28;20033;-56
2021/03/31 07:23:19;;;;;;;44.72;20.88;;;;;;;;;;5013031;28;20036;-56
2021/03/31 07:25:45;;;;;;;43.75;21.95;;;;;;;;;;5012661;28;20044;-56
2021/03/31 07:28:15;;;;;;;49.80;23.57;;;;;;;;;;4995583;28;20041;-57
2021/03/31 07:30:41;;;;;;;46.38;20.65;;;;;;;;;;5011487;28;20034;-56
2021/03/31 07:33:11;;;;;;;41.93;20.43;;;;;;;;;;5012080;28;20056;-57
2021/03/31 07:35:36;;;;;;;43.88;21.00;;;;;;;;;;5010511;28;20069;-56
2021/03/31 07:38:03;;;;;;;40.65;19.92;;;;;;;;;;5013063;28;20030;-56
2021/03/31 07:40:30;;;;;;;44.05;20.08;;;;;;;;;;5011781;28;20129;-57
2021/03/31 07:43:03;;;;;;;44.60;20.75;;;;;;;;;;5011859;28;20411;-57
2021/03/31 07:45:34;;;;;;;44.47;20.02;;;;;;;;;;5012304;28;20231;-55
2021/03/31 07:48:00;;;;;;;38.83;20.35;;;;;;;;;;5011452;28;20112;-55
2021/03/31 07:50:25;;;;;;;41.10;21.30;;;;;;;;;;5012702;28;20054;-56
2021/03/31 07:52:53;;;;;;;47.00;20.73;;;;;;;;;;5010434;28;20467;-56
2021/03/31 07:55:24;;;;;;;43.08;18.73;;;;;;;;;;5012565;28;20092;-55
2021/03/31 07:58:09;;;;;;;38.97;19.40;;;;;;;;;;5012239;28;20038;-57
2021/03/31 08:01:02;;;;;;;44.42;21.55;;;;;;;;;;5011739;28;20030;-54
2021/03/31 08:03:29;;;;;;;43.28;19.15;;;;;;;;;;5009441;28;20140;-55
2021/03/31 08:05:54;;;;;;;;;;;;;;;;;;5010884;28;20034;-57
2021/03/31 08:08:23;;;;;;;37.53;18.70;;;;;;;;;;5012349;28;19906;-57
2021/03/31 08:10:50;;;;;;;43.30;19.40;;;;;;;;;;5010819;28;20501;-57
2021/03/31 08:13:25;;;;;;;42.30;19.20;;;;;;;;;;5010564;28;20034;-57
2021/03/31 08:15:51;;;;;;;41.40;18.47;;;;;;;;;;5012860;28;20267;-58
2021/03/31 08:18:16;;;;;;;38.60;17.80;;;;;;;;;;5012509;28;20561;-57
2021/03/31 08:20:41;;;;;;;35.80;19.10;;;;;;;;;;5011714;28;20049;-57
2021/03/31 08:23:10;;;;;;;38.60;21.30;;;;;;;;;;5012210;28;20119;-57
2021/03/31 08:25:36;;;;;;;35.87;19.83;;;;;;;;;;5012187;28;20116;-58
2021/03/31 08:28:05;;;;;;;40.05;20.40;;;;;;;;;;5011322;28;20270;-57
2021/03/31 08:30:32;;;;;;;37.97;20.77;;;;;;;;;;5011675;28;20140;-58
2021/03/31 08:32:57;;;;;;;41.38;20.73;;;;;;;;;;5011500;28;20263;-57
2021/03/31 08:35:24;;;;;;;34.33;19.10;;;;;;;;;;5009986;28;20034;-57
2021/03/31 08:37:50;;;;;;;36.72;20.35;;;;;;;;;;5011310;28;20030;-57
2021/03/31 08:40:16;;;;;;;39.47;19.42;;;;;;;;;;5011386;28;20040;-58
2021/03/31 08:42:48;;;;;;;37.35;19.77;;;;;;;;;;5009547;28;20062;-57
2021/03/31 08:45:24;;;;;;;38.70;19.30;;;;;;;;;;5011389;28;20475;-57
2021/03/31 08:47:49;;;;;;;40.87;18.50;;;;;;;;;;5010818;28;20352;-58
2021/03/31 08:50:23;;;;;;;39.20;19.57;;;;;;;;;;5011456;28;20303;-57
2021/03/31 08:52:56;;;;;;;39.27;18.93;;;;;;;;;;5009798;28;20037;-56
2021/03/31 08:55:21;;;;;;;38.73;19.73;;;;;;;;;;5011700;28;20349;-56
2021/03/31 08:57:47;;;;;;;39.67;19.60;;;;;;;;;;5018752;28;20271;-58
2021/03/31 09:00:13;;;;;;;35.92;17.50;;;;;;;;;;5031223;28;20462;-58
2021/03/31 09:02:41;;;;;;;38.53;18.08;;;;;;;;;;5019854;28;20332;-58
2021/03/31 09:05:07;;;;;;;34.50;17.13;;;;;;;;;;5014828;28;20049;-58
2021/03/31 09:07:33;;;;;;;35.92;17.50;;;;;;;;;;5018784;28;20743;-58
2021/03/31 09:09:59;;;;;;;38.50;19.20;;;;;;;;;;5009734;28;20100;-57
2021/03/31 09:12:26;;;;;;;36.60;17.97;;;;;;;;;;5009986;28;20038;-58
2021/03/31 09:14:52;;;;;;;32.42;17.65;;;;;;;;;;5015636;28;20403;-57
2021/03/31 09:17:18;;;;;;;33.40;18.13;;;;;;;;;;4993476;28;20058;-58
2021/03/31 09:19:44;;;;;;;39.33;17.50;;;;;;;;;;4992838;28;20453;-57
2021/03/31 09:22:11;;;;;;;30.60;18.65;;;;;;;;;;5014062;28;20065;-58
2021/03/31 09:24:40;;;;;;;34.77;18.50;;;;;;;;;;5033553;28;20037;-58
2021/03/31 09:27:06;;;;;;;41.37;18.67;;;;;;;;;;5031265;28;20030;-56
2021/03/31 09:29:32;;;;;;;37.03;18.60;;;;;;;;;;5021454;28;20277;-58
2021/03/31 09:31:58;;;;;;;35.72;17.83;;;;;;;;;;5015995;28;20098;-58
2021/03/31 09:34:24;;;;;;;31.97;17.07;;;;;;;;;;5014650;28;20477;-58
2021/03/31 09:36:49;;;;;;;;;;;;;;;;;;5012044;28;20022;-58
2021/03/31 09:39:14;;;;;;;30.83;17.00;;;;;;;;;;5008217;28;19914;-58
2021/03/31 09:41:41;;;;;;;;;;;;;;;;;;5014547;28;20048;-57
2021/03/31 09:44:06;;;;;;;32.30;17.13;;;;;;;;;;5008084;28;20284;-57
2021/03/31 09:46:31;;;;;;;;;;;;;;;;;;5008402;28;20359;-57
2021/03/31 09:48:57;;;;;;;32.57;17.57;;;;;;;;;;4985594;28;19910;-57
2021/03/31 09:51:23;;;;;;;34.00;17.53;;;;;;;;;;5009851;28;20056;-57
2021/03/31 09:53:49;;;;;;;33.03;18.50;;;;;;;;;;4993553;28;20084;-55
2021/03/31 09:56:16;;;;;;;31.17;17.27;;;;;;;;;;4993938;28;20030;-58
2021/03/31 09:58:44;;;;;;;31.47;17.10;;;;;;;;;;4995370;28;20098;-58
2021/03/31 10:01:13;;;;;;;30.15;16.83;;;;;;;;;;5013530;28;20454;-58
2021/03/31 10:03:40;;;;;;;33.28;17.20;;;;;;;;;;5013067;28;20398;-58
2021/03/31 10:06:15;;;;;;;31.98;16.95;;;;;;;;;;5012802;28;20030;-58
2021/03/31 10:08:40;;;;;;;29.52;16.80;;;;;;;;;;5013336;28;20084;-58
2021/03/31 10:11:09;;;;;;;32.60;18.30;;;;;;;;;;5014454;28;20014;-58
2021/03/31 10:13:35;;;;;;;29.23;17.17;;;;;;;;;;5013162;28;20030;-58
2021/03/31 10:16:04;;;;;;;33.10;18.60;;;;;;;;;;5013197;28;20359;-58
2021/03/31 10:18:32;;;;;;;32.58;17.85;;;;;;;;;;5012030;28;20084;-59
2021/03/31 10:20:58;;;;;;;27.58;16.83;;;;;;;;;;5011316;28;20053;-58
2021/03/31 10:23:28;;;;;;;31.42;17.45;;;;;;;;;;5010637;28;20042;-58
2021/03/31 10:26:13;;;;;;;27.80;17.25;;;;;;;;;;5011341;28;20117;-57
2021/03/31 10:28:39;;;;;;;29.65;17.27;;;;;;;;;;5011950;28;20144;-57
2021/03/31 10:31:37;;;;;;;34.15;17.30;;;;;;;;;;5010598;28;20014;-59
2021/03/31 10:34:03;;;;;;;30.60;16.90;;;;;;;;;;4978996;28;20120;-57
2021/03/31 10:36:36;;;;;;;25.83;16.77;;;;;;;;;;5012833;28;20022;-58
2021/03/31 10:39:40;;;;;;;27.88;17.02;;;;;;;;;;5012412;28;20030;-57
2021/03/31 10:47:30;;;;;;;30.52;16.85;;;;;;;;;;5014374;28;20034;-58
2021/03/31 10:50:01;;;;;;;28.08;17.27;;;;;;;;;;5013505;28;20439;-58
2021/03/31 10:52:28;;;;;;;31.67;18.33;;;;;;;;;;5014195;28;20030;-58
2021/03/31 10:54:55;;;;;;;32.85;18.15;;;;;;;;;;5013993;28;20453;-57
2021/03/31 10:57:21;;;;;;;29.90;18.13;;;;;;;;;;5012559;28;20454;-57
2021/03/31 10:59:46;;;;;;;29.80;18.77;;;;;;;;;;5013824;28;20525;-58
2021/03/31 11:02:12;;;;;;;30.35;18.40;;;;;;;;;;5011883;28;20115;-57
2021/03/31 11:04:37;;;;;;;36.72;19.08;;;;;;;;;;5013552;28;20046;-58
2021/03/31 11:07:02;;;;;;;28.45;17.67;;;;;;;;;;5011796;28;20041;-57
2021/03/31 11:09:29;;;;;;;37.63;18.88;;;;;;;;;;5013599;28;20045;-58
2021/03/31 11:11:55;;;;;;;33.60;18.13;;;;;;;;;;5012548;28;20038;-57
2021/03/31 11:14:20;;;;;;;30.15;17.70;;;;;;;;;;5012798;28;20025;-58
2021/03/31 11:16:54;;;;;;;29.90;17.45;;;;;;;;;;5013238;28;20475;-58
2021/03/31 11:27:00;;;;;;;31.15;17.98;;;;;;;;;;5011343;28;20425;-56
2021/03/31 11:29:25;;;;;;;29.77;17.85;;;;;;;;;;5011583;28;20026;-57
2021/03/31 11:31:50;;;;;;;29.60;16.20;;;;;;;;;;5011887;28;20137;-58
2021/03/31 11:34:16;;;;;;;28.20;15.48;;;;;;;;;;5012273;28;20401;-57
2021/03/31 11:36:41;;;;;;;30.45;17.00;;;;;;;;;;5012477;28;20034;-57
2021/03/31 11:39:07;;;;;;;30.67;17.00;;;;;;;;;;5012563;28;20025;-57
2021/03/31 11:41:32;;;;;;;26.83;14.77;;;;;;;;;;5011660;28;20371;-58
2021/03/31 11:43:57;;;;;;;26.17;13.93;;;;;;;;;;5012975;28;20058;-59
2021/03/31 11:46:23;;;;;;;23.98;13.65;;;;;;;;;;5010900;28;20069;-57
2021/03/31 11:48:48;;;;;;;29.65;15.43;;;;;;;;;;5012978;28;20041;-58
2021/03/31 11:51:14;;;;;;;25.83;13.57;;;;;;;;;;4994711;28;20450;-57
2021/03/31 11:53:39;;;;;;;23.75;14.77;;;;;;;;;;5011773;28;20030;-57
2021/03/31 11:56:05;;;;;;;24.55;14.02;;;;;;;;;;5012502;28;20436;-57
2021/03/31 11:58:30;;;;;;;23.65;13.45;;;;;;;;;;5011851;28;20026;-58
2021/03/31 12:00:57;;;;;;;22.27;13.48;;;;;;;;;;5013123;28;20026;-57
2021/03/31 12:03:24;;;;;;;24.75;13.27;;;;;;;;;;5010833;28;20095;-58
2021/03/31 12:05:49;;;;;;;24.50;13.27;;;;;;;;;;5012674;28;20026;-58
2021/03/31 12:08:14;;;;;;;25.35;15.80;;;;;;;;;;5010484;28;20025;-57
2021/03/31 12:10:40;;;;;;;28.45;16.40;;;;;;;;;;5010931;28;20394;-58
2021/03/31 12:13:05;;;;;;;30.90;17.45;;;;;;;;;;5011886;28;20046;-56
2021/03/31 12:15:31;;;;;;;28.42;18.38;;;;;;;;;;5012631;28;20037;-57
2021/03/31 12:17:56;;;;;;;31.63;17.55;;;;;;;;;;5012308;28;20446;-58
2021/03/31 12:20:22;;;;;;;33.70;19.73;;;;;;;;;;5011795;28;20037;-57
2021/03/31 12:22:47;;;;;;;36.30;19.67;;;;;;;;;;5012132;28;20128;-57
2021/03/31 12:25:13;;;;;;;33.42;19.40;;;;;;;;;;5011731;28;20442;-57
2021/03/31 12:27:40;;;;;;;35.47;19.63;;;;;;;;;;5011911;28;20095;-58
2021/03/31 12:30:08;;;;;;;38.80;20.98;;;;;;;;;;5002354;28;20042;-57
2021/03/31 12:32:33;;;;;;;38.70;20.50;;;;;;;;;;5005166;28;20030;-58
2021/03/31 12:34:59;;;;;;;37.63;21.65;;;;;;;;;;5018163;28;20029;-57
2021/03/31 12:37:24;;;;;;;34.45;21.35;;;;;;;;;;5019039;28;20045;-57
2021/03/31 12:39:50;;;;;;;35.33;20.48;;;;;;;;;;5010327;28;20030;-57
2021/03/31 12:42:15;;;;;;;32.47;18.80;;;;;;;;;;5009674;28;20119;-57
2021/03/31 12:44:41;;;;;;;37.00;19.67;;;;;;;;;;5011690;28;20034;-58
2021/03/31 12:47:06;;;;;;;33.58;19.30;;;;;;;;;;5009713;28;20087;-58
2021/03/31 12:49:31;;;;;;;33.38;19.15;;;;;;;;;;5009661;28;20038;-57
2021/03/31 12:52:02;;;;;;;37.95;19.95;;;;;;;;;;5011645;28;20034;-58
2021/03/31 12:56:59;;;;;;;33.30;18.77;;;;;;;;;;5011317;28;20112;-58
2021/03/31 12:59:25;;;;;;;32.97;20.23;;;;;;;;;;5009878;28;20429;-57
2021/03/31 13:01:50;;;;;;;35.05;20.17;;;;;;;;;;5011072;28;20073;-58
2021/03/31 13:04:16;;;;;;;31.85;19.80;;;;;;;;;;5010940;28;20082;-57
2021/03/31 13:06:42;;;;;;;33.58;19.10;;;;;;;;;;5011917;28;20144;-57
2021/03/31 13:09:08;;;;;;;34.65;20.15;;;;;;;;;;5011149;28;20510;-57
2021/03/31 13:11:34;;;;;;;29.83;18.23;;;;;;;;;;5010552;28;20109;-58
2021/03/31 13:24:43;;;;;;;34.88;19.42;;;;;;;;;;5010280;28;20026;-58
2021/03/31 13:32:33;;;;;;;30.85;18.55;;;;;;;;;;5022536;28;20122;-57
2021/03/31 13:35:06;;;;;;;32.97;18.38;;;;;;;;;;5019834;28;20033;-58
2021/03/31 13:37:45;;;;;;;35.13;19.58;;;;;;;;;;5020305;28;20465;-57
2021/03/31 13:40:11;;;;;;;31.00;17.67;;;;;;;;;;5030880;28;20034;-58
2021/03/31 13:42:36;;;;;;;32.13;19.45;;;;;;;;;;5029984;28;20068;-58
2021/03/31 13:45:03;;;;;;;29.52;17.48;;;;;;;;;;5030356;28;20092;-58
2021/03/31 13:47:32;;;;;;;33.30;19.13;;;;;;;;;;5029831;28;20034;-59
2021/03/31 13:50:00;;;;;;;29.08;16.67;;;;;;;;;;5030958;28;20041;-58
2021/03/31 13:52:29;;;;;;;31.85;18.30;;;;;;;;;;5030190;28;20037;-58
2021/03/31 13:54:57;;;;;;;37.92;19.85;;;;;;;;;;5030713;28;20112;-58
2021/03/31 13:57:25;;;;;;;31.45;19.40;;;;;;;;;;5028704;28;20031;-57
2021/03/31 13:59:51;;;;;;;35.85;19.20;;;;;;;;;;5030393;28;20041;-58
2021/03/31 14:02:16;;;;;;;30.23;18.38;;;;;;;;;;5023180;28;20022;-56
2021/03/31 14:04:42;;;;;;;33.50;19.25;;;;;;;;;;5011285;28;20398;-58
2021/03/31 14:07:07;;;;;;;35.45;18.70;;;;;;;;;;5019382;28;20378;-57
2021/03/31 14:09:33;;;;;;;35.28;19.52;;;;;;;;;;5030651;28;20072;-56
2021/03/31 14:11:59;;;;;;;33.35;18.63;;;;;;;;;;5034396;28;20083;-57
2021/03/31 14:14:25;;;;;;;30.73;18.20;;;;;;;;;;5033454;28;20033;-58
2021/03/31 14:17:03;;;;;;;35.72;19.15;;;;;;;;;;5032185;28;20043;-58
2021/03/31 14:19:37;;;;;;;33.63;17.08;;;;;;;;;;5033333;28;20489;-57
2021/03/31 14:22:03;;;;;;;30.70;17.58;;;;;;;;;;5034126;28;20042;-58
2021/03/31 14:24:28;;;;;;;33.75;17.05;;;;;;;;;;5033483;28;20508;-56
2021/03/31 14:26:53;;;;;;;36.95;19.45;;;;;;;;;;5034126;28;20033;-57
2021/03/31 14:29:19;;;;;;;31.88;17.85;;;;;;;;;;5027223;28;20087;-57
2021/03/31 14:31:44;;;;;;;32.33;16.75;;;;;;;;;;5013447;28;20046;-59
2021/03/31 14:34:09;;;;;;;35.40;17.67;;;;;;;;;;5013482;28;20034;-59
2021/03/31 14:36:35;;;;;;;30.08;16.05;;;;;;;;;;5013432;28;20033;-58
2021/03/31 14:39:07;;;;;;;29.98;15.93;;;;;;;;;;5014114;28;20466;-58
2021/03/31 14:41:32;;;;;;;29.48;15.88;;;;;;;;;;5013213;28;20052;-57
2021/03/31 14:43:58;;;;;;;29.73;15.73;;;;;;;;;;5013829;28;20466;-58
2021/03/31 14:46:23;;;;;;;26.88;14.30;;;;;;;;;;5012056;28;20041;-57
2021/03/31 14:48:49;;;;;;;29.02;14.27;;;;;;;;;;4995527;28;20411;-58
2021/03/31 14:51:17;;;;;;;32.15;14.75;;;;;;;;;;5012966;28;20044;-58
2021/03/31 15:01:41;;;;;;;30.02;15.32;;;;;;;;;;4996763;28;20199;-58